createdAt,value
2022-11-12T00:02:16.894Z,28.10
2022-11-12T00:05:20.523Z,29.50
2022-11-12T00:08:16.542Z,28.00
2022-11-12T00:11:12.008Z,29.60
2022-11-12T00:14:14.604Z,28.50
2022-11-12T00:17:15.015Z,28.50
2022-11-12T00:20:18.336Z,29.20
2022-11-12T00:23:17.472Z,29.60
2022-11-12T00:26:14.118Z,28.90
2022-11-12T00:29:13.722Z,27.80
2022-11-12T00:32:17.388Z,28.10
2022-11-12T00:35:15.587Z,27.60
2022-11-12T00:38:13.374Z,27.90
2022-11-12T00:41:12.937Z,28.90
2022-11-12T00:44:15.459Z,30.20
2022-11-12T00:47:13.323Z,30.10
2022-11-12T00:50:17.558Z,30.30
2022-11-12T00:53:15.203Z,32.00
2022-11-12T00:56:13.203Z,31.50
2022-11-12T00:59:12.914Z,33.50
2022-11-12T01:02:14.156Z,34.30
2022-11-12T01:05:26.158Z,33.90
2022-11-12T01:08:19.523Z,34.00
2022-11-12T01:11:13.859Z,33.80
2022-11-12T01:17:13.032Z,31.30
2022-11-12T01:20:13.727Z,33.30
2022-11-12T01:23:15.406Z,33.20
2022-11-12T01:26:18.029Z,32.30
2022-11-12T01:29:15.602Z,31.30
2022-11-12T01:32:14.366Z,29.20
2022-11-12T01:35:13.172Z,29.20
2022-11-12T01:38:14.030Z,31.60
2022-11-12T01:41:17.698Z,31.60
2022-11-12T01:44:16.372Z,31.50
2022-11-12T01:47:20.432Z,31.10
2022-11-12T01:50:20.176Z,29.50
2022-11-12T01:53:17.833Z,31.30
2022-11-12T01:56:14.366Z,28.70
2022-11-12T01:59:14.505Z,30.50
2022-11-12T02:02:26.750Z,30.90
2022-11-12T02:05:22.700Z,29.70
2022-11-12T02:08:15.716Z,29.70
2022-11-12T02:11:20.971Z,30.10
2022-11-12T02:14:15.638Z,30.00
2022-11-12T02:17:11.169Z,30.20
2022-11-12T02:20:15.595Z,31.20
2022-11-12T02:23:16.756Z,32.10
2022-11-12T02:26:14.836Z,33.50
2022-11-12T02:29:16.057Z,33.20
2022-11-12T02:32:15.750Z,33.60
2022-11-12T11:51:09.966Z,11.40
2022-11-12T11:54:42.996Z,10.60
2022-11-12T11:57:39.143Z,10.90
2022-11-12T12:00:37.648Z,11.00
2022-11-12T12:03:32.975Z,12.00
2022-11-12T12:06:27.614Z,10.70
2022-11-12T12:09:32.319Z,10.00
2022-11-12T12:12:40.709Z,10.40
2022-11-12T12:15:53.392Z,9.80
2022-11-12T12:19:29.179Z,11.40
2022-11-12T12:22:41.086Z,11.90
2022-11-12T12:25:39.710Z,12.40
2022-11-12T12:28:42.954Z,11.30
2022-11-12T12:31:46.319Z,11.00
2022-11-12T12:34:40.074Z,12.50
2022-11-12T12:37:42.089Z,11.80
2022-11-12T12:40:38.369Z,11.90
2022-11-12T12:43:39.646Z,11.30
2022-11-12T12:46:38.777Z,11.60
2022-11-12T12:49:38.333Z,12.10
2022-11-12T12:53:06.871Z,13.60
2022-11-12T12:55:58.823Z,11.60
2022-11-12T12:58:50.797Z,12.70
2022-11-12T13:01:41.172Z,14.30
2022-11-12T13:04:53.778Z,13.80
2022-11-12T13:07:46.651Z,12.90
2022-11-12T13:10:58.973Z,14.70
2022-11-12T13:13:51.795Z,15.70
2022-11-12T13:16:59.375Z,16.60
2022-11-12T13:20:09.976Z,13.50
2022-11-12T13:23:00.100Z,13.40
2022-11-12T13:25:52.687Z,14.10
2022-11-12T13:29:22.643Z,14.10
2022-11-12T13:35:35.057Z,12.50
2022-11-12T13:38:22.529Z,12.70
2022-11-12T13:45:14.681Z,17.80
2022-11-12T13:48:10.112Z,15.00
2022-11-12T13:51:19.941Z,14.50
2022-11-12T13:54:33.785Z,14.50
2022-11-12T13:57:32.306Z,15.40
2022-11-12T14:00:28.422Z,15.40
2022-11-12T14:03:21.385Z,18.90
2022-11-12T14:06:19.369Z,17.40
2022-11-12T14:09:35.461Z,17.50
2022-11-12T14:12:46.254Z,23.80
2022-11-12T14:15:59.446Z,16.00
2022-11-12T14:25:35.200Z,15.10
2022-11-12T14:28:59.405Z,16.00
2022-11-12T14:32:00.818Z,13.10
2022-11-12T14:34:57.203Z,12.60
2022-11-12T14:37:52.528Z,13.80
2022-11-12T14:40:52.079Z,14.20
2022-11-12T14:43:46.341Z,14.10
2022-11-12T14:46:47.461Z,15.70
2022-11-12T14:49:45.217Z,16.60
2022-11-12T14:52:41.283Z,16.90
2022-11-12T14:55:42.771Z,18.50
2022-11-12T14:58:37.668Z,16.20
2022-11-12T15:02:14.256Z,17.20
2022-11-12T15:04:55.888Z,17.90
2022-11-12T15:07:58.300Z,17.80
2022-11-12T15:10:48.689Z,15.70
2022-11-12T15:13:44.247Z,17.80
2022-11-12T15:16:44.363Z,17.40
2022-11-12T15:19:42.740Z,18.60
2022-11-12T15:22:33.691Z,20.10
2022-11-12T15:25:42.722Z,18.90
2022-11-12T15:28:35.261Z,18.00
2022-11-12T15:31:47.961Z,19.00
2022-11-12T15:34:49.720Z,18.90
2022-11-12T15:37:47.496Z,18.90
2022-11-12T15:40:46.481Z,18.50
2022-11-12T15:43:46.392Z,20.90
2022-11-12T15:46:37.827Z,19.30
2022-11-12T15:49:47.519Z,20.90
2022-11-12T15:52:37.810Z,19.10
2022-11-12T15:55:39.390Z,20.50
2022-11-12T15:58:41.877Z,20.30
2022-11-12T16:01:40.913Z,22.20
2022-11-12T16:04:39.155Z,20.30
2022-11-12T16:07:38.333Z,19.70
2022-11-12T16:10:34.749Z,21.40
2022-11-12T16:13:48.795Z,21.20
2022-11-12T16:16:41.769Z,22.70
2022-11-12T16:19:37.931Z,21.70
2022-11-12T16:22:39.120Z,22.20
2022-11-12T16:25:41.104Z,21.30
2022-11-12T16:28:36.420Z,22.70
2022-11-12T16:31:43.127Z,21.50
2022-11-12T16:34:36.260Z,21.60
2022-11-12T16:37:37.963Z,23.40
2022-11-12T16:40:36.841Z,23.70
2022-11-12T16:43:35.987Z,24.60
2022-11-12T16:46:40.556Z,22.90
2022-11-12T16:49:38.643Z,24.80
2022-11-12T16:52:34.923Z,24.60
2022-11-12T16:55:47.780Z,22.70
2022-11-12T16:58:41.435Z,21.70
2022-11-12T17:01:46.851Z,25.40
2022-11-12T17:04:41.964Z,26.00
2022-11-12T17:07:36.641Z,27.80
2022-11-12T17:10:35.828Z,24.00
2022-11-12T17:13:49.449Z,25.30
2022-11-12T17:16:40.689Z,30.60
2022-11-12T17:19:48.786Z,24.90
2022-11-12T17:22:41.579Z,24.90
2022-11-12T17:25:37.081Z,28.00
2022-11-12T17:28:35.605Z,26.40
2022-11-12T17:31:41.581Z,25.40
2022-11-12T17:34:37.213Z,25.90
2022-11-12T17:37:46.040Z,25.90
2022-11-12T17:40:36.186Z,27.20
2022-11-12T17:43:38.360Z,26.40
2022-11-12T17:46:35.841Z,25.60
2022-11-12T17:49:44.879Z,26.70
2022-11-12T17:52:37.670Z,26.20
2022-11-12T17:55:41.703Z,26.60
2022-11-12T17:58:35.269Z,27.50
2022-11-12T18:01:35.785Z,28.00
2022-11-12T18:04:40.700Z,28.00
2022-11-12T18:07:52.238Z,27.40
2022-11-12T20:47:18.631Z,22.10
2022-11-12T20:50:10.577Z,23.00
2022-11-12T20:52:59.519Z,23.10
2022-11-12T20:55:50.227Z,22.50
2022-11-12T20:58:40.607Z,22.90
2022-11-12T21:01:30.339Z,22.50
2022-11-12T21:04:18.948Z,22.40
2022-11-12T21:07:07.523Z,24.00
2022-11-12T21:09:56.051Z,20.90
2022-11-12T21:12:45.102Z,22.90
2022-11-12T21:15:32.828Z,20.30
2022-11-12T21:18:26.151Z,23.50
2022-11-12T21:21:17.254Z,19.50
2022-11-12T21:24:06.246Z,21.30
2022-11-12T21:26:54.526Z,20.80
2022-11-12T21:29:42.648Z,20.70
2022-11-12T21:32:32.927Z,20.70
2022-11-12T21:35:22.478Z,21.20
2022-11-12T21:38:12.153Z,21.70
2022-11-12T21:41:11.678Z,21.10
2022-11-12T21:44:02.949Z,20.50
2022-11-12T21:46:53.904Z,22.60
2022-11-12T21:49:48.908Z,22.20
2022-11-12T21:52:40.176Z,22.20
2022-11-12T21:55:32.690Z,21.30
2022-11-12T21:58:23.085Z,21.50
2022-11-12T22:01:16.906Z,21.50
2022-11-12T22:04:10.953Z,20.90
2022-11-12T22:07:03.766Z,19.00
2022-11-12T22:09:56.693Z,20.20
2022-11-12T22:13:12.025Z,21.00
2022-11-12T22:15:55.194Z,22.50
2022-11-12T22:18:46.759Z,23.20
2022-11-12T22:21:39.955Z,20.80
2022-11-12T22:24:29.920Z,20.70
2022-11-12T22:27:19.772Z,22.00
2022-11-12T22:30:11.396Z,22.40
2022-11-12T22:33:01.302Z,24.40
2022-11-12T22:35:52.520Z,22.70
2022-11-12T22:38:44.046Z,24.50
2022-11-12T22:41:35.939Z,26.90
2022-11-12T22:44:24.959Z,24.10
2022-11-12T22:47:15.030Z,30.70
2022-11-12T22:50:04.720Z,32.30
2022-11-12T22:52:55.790Z,32.00
2022-11-12T22:55:44.717Z,33.40
2022-11-12T22:58:38.691Z,33.60
2022-11-12T23:01:33.280Z,33.70
2022-11-12T23:04:23.415Z,36.00
2022-11-12T23:07:13.346Z,33.30
2022-11-12T23:10:06.978Z,34.90
2022-11-12T23:12:57.083Z,37.30
2022-11-12T23:15:46.697Z,36.00
2022-11-12T23:18:35.939Z,36.30
2022-11-12T23:21:29.411Z,38.10
2022-11-12T23:24:18.870Z,37.70
2022-11-12T23:27:07.954Z,38.40
2022-11-12T23:29:57.092Z,38.50
2022-11-12T23:32:46.758Z,36.00
2022-11-12T23:35:35.988Z,38.00
2022-11-12T23:38:25.968Z,36.70
2022-11-12T23:41:17.273Z,37.10
2022-11-12T23:44:07.414Z,40.70
2022-11-12T23:46:56.521Z,37.50
2022-11-12T23:49:47.783Z,37.20
2022-11-12T23:52:37.227Z,37.90
2022-11-12T23:55:30.600Z,38.90
2022-11-12T23:58:20.856Z,37.90
